Архив погоды в Клину

Метеограмма Клин
Понедельник, 25 Июня
Время местн. Темп Ветер Видим Явления Облачность нижн/средн/верх Атм. давл. Влжн Точка росы ВНГО R Сост. почвы Tg s
Напр Скр Прв ур.ст ур.м изм
03:00 +12.8° З 1 - 10 км небо без изменений {ливневые осадки} облачно 747 761 +0.7 89% +11.1° 1 км - - - -
00:00 +14.2° З 1 - 10 км слабый ливневый дождь облачно 746 761 +0.8 84% +11.5° 1 км - - - -
Воскресенье, 24 Июня
Время местн. Темп Ветер Видим Явления Облачность нижн/средн/верх Атм. давл. Влжн Точка росы ВНГО R Сост. почвы Tg s
Напр Скр Прв ур.ст ур.м изм
21:00 +14.7° З 1 - 10 км - облачно 745 760 +1.6 83% +11.8° 1 км 0 - - -
18:00 +21.9° З,Ю-З 2 - 10 км - облачно 744 758 +1.1 66% +15.2° 1 км - - - -
15:00 +25.6° З 2 - 10 км - облачно 742 757 +1.4 52% +15.1° 1 км - - - -
12:00 +27.6° Ю 3 - 10 км - преимущественно облачно 741 755 +1.1 45% +14.6° 1 км - - - -
09:00 +25.4° Ю 2 - 10 км - преимущественно облачно 740 754 -0.3 52% +14.7° более 2.5 км 0 Влажная (без луж) +13° -
06:00 +14.1° В,Ю-В 1 - 10 км - преимущественно облачно 740 755 -1.1 93% +13° более 2.5 км - - - -
03:00 +13.1° штиль 0 - 10 км - переменная облачность 742 756 -0.3 92% +11.8° более 2.5 км - - - -
00:00 +15.3° З 2 - 10 км - облачно с прояснениями 742 756 +0.5 88% +13.3° 1 км - - - -
Суббота, 23 Июня
Время местн. Темп Ветер Видим Явления Облачность нижн/средн/верх Атм. давл. Влжн Точка росы ВНГО R Сост. почвы Tg s
Напр Скр Прв ур.ст ур.м изм
21:00 +16.7° С,С-В 1 - 10 км - преимущественно облачно 741 756 -1.4 81% +13.4° 1 км 0 - - -
18:00 +18.8° С,С-В 2 - 10 км - преимущественно облачно 743 757 -2 69% +13.1° 1 км - - - -
15:00 +17.1° С 2 - 10 км - преимущественно облачно 745 759 -0.5 72% +12.1° 1 км - - - -
12:00 +18.3° С,С-В 2 - 10 км - преимущественно облачно 745 760 +0.1 66% +11.9° 1 км - - - -
09:00 +17.5° С 2 - 10 км - преимущественно облачно 745 760 +0.1 71% +12.1° 1 км 10 Влажная (без луж) +17° -
06:00 +15° З,С-З 1 - 10 км - облачно 746 760 +0.7 93% +13.8° 1 км - - - -
03:00 +14.4° штиль 0 - 10 км ливневый дождь облачно 745 760 +1.6 92% +13.1° 1 км - - - -
00:00 +17.9° З 2 - 10 км слабый ливневый дождь облачно 743 758 +0.8 92% +16.5° 1 км - - - -
Пятница, 22 Июня
Время местн. Темп Ветер Видим Явления Облачность нижн/средн/верх Атм. давл. Влжн Точка росы ВНГО R Сост. почвы Tg s
Напр Скр Прв ур.ст ур.м изм
21:00 +21.6° З 2 - 10 км - преимущественно облачно 742 757 +1.5 69% +15.7° 1 км 0 - - -
18:00 +27.2° Ю 3 10 10 км - облачно 741 755 +0.2 40% +12.3° 1 км - - - -
15:00 +29.3° Ю 4 12 10 км - переменная облачность 741 755 -1.1 31% +10.2° 1 км - - - -
12:00 +27.8° Ю 3 10 10 км - переменная облачность 742 756 -0.8 36% +11.2° более 2.5 км - - - -
09:00 +22.9° Ю 3 - 10 км - облачно с прояснениями 743 757 -1.1 53% +12.9° более 2.5 км 0 Сухая (без трещин) +12° -
06:00 +16.4° Ю 2 - 10 км - переменная облачность 744 758 -0.4 77% +12.3° более 2.5 км - - - -
03:00 +15° Ю,Ю-В 1 - 10 км - ясно 744 759 -0.5 85% +12.5° более 2.5 км - - - -
00:00 +15.5° Ю,Ю-В 1 - 10 км - незначительная облачность 744 759 +0.2 85% +13° более 2.5 км - - - -